Time;durP1;ratioP1;P1;durP2;ratioP2;P2;SDS_P1;SDS_P2;PMS_P1;PMS_P2;Temp;Humidity;BMP_temperature;BMP_pressure;BME280_temperature;BME280_humidity;BME280_pressure;Samples;Min_cycle;Max_cycle;Signal;HPM_P1;HPM_P2
2021/07/30 00:01:13;;;;;;;21.75;9.55;;;;;;;;;;5019341;28;20053;-69
2021/07/30 00:03:40;;;;;;;35.42;9.98;;;;;;;;;;5025402;28;20124;-68
2021/07/30 00:06:06;;;;;;;20.77;9.35;;;;;;;;;;5019272;28;20516;-68
2021/07/30 00:08:32;;;;;;;32.58;10.55;;;;;;;;;;5021117;28;20465;-69
2021/07/30 00:10:59;;;;;;;31.92;10.75;;;;;;;;;;5023910;28;20073;-69
2021/07/30 00:13:25;;;;;;;27.75;10.18;;;;;;;;;;5015381;28;20049;-69
2021/07/30 00:15:51;;;;;;;26.40;10.10;;;;;;;;;;5019929;28;20069;-68
2021/07/30 00:18:18;;;;;;;28.63;10.40;;;;;;;;;;5015347;28;20598;-69
2021/07/30 00:20:44;;;;;;;28.88;10.45;;;;;;;;;;5015170;28;20061;-69
2021/07/30 00:23:10;;;;;;;25.33;10.98;;;;;;;;;;5017386;28;20049;-69
2021/07/30 00:25:36;;;;;;;31.73;11.45;;;;;;;;;;5023544;28;20049;-68
2021/07/30 00:28:02;;;;;;;21.58;11.43;;;;;;;;;;5020363;28;20045;-69
2021/07/30 00:30:29;;;;;;;32.95;11.50;;;;;;;;;;5022504;28;20147;-69
2021/07/30 00:32:55;;;;;;;28.40;12.07;;;;;;;;;;5019319;28;20120;-69
2021/07/30 00:35:21;;;;;;;23.33;11.48;;;;;;;;;;5018174;28;20053;-68
2021/07/30 00:37:47;;;;;;;34.58;10.75;;;;;;;;;;5018087;28;20057;-68
2021/07/30 00:40:14;;;;;;;28.40;12.18;;;;;;;;;;5018609;28;20489;-69
2021/07/30 00:42:49;;;;;;;25.85;12.85;;;;;;;;;;5022647;28;20052;-69
2021/07/30 00:45:15;;;;;;;30.52;12.50;;;;;;;;;;5024347;28;20149;-68
2021/07/30 00:47:41;;;;;;;23.88;11.93;;;;;;;;;;5023444;28;20050;-69
2021/07/30 00:50:08;;;;;;;29.38;12.77;;;;;;;;;;5018009;28;20144;-69
2021/07/30 00:52:34;;;;;;;27.25;11.80;;;;;;;;;;5018397;28;20136;-69
2021/07/30 00:55:00;;;;;;;24.17;12.63;;;;;;;;;;5015757;28;20061;-69
2021/07/30 00:57:26;;;;;;;28.17;12.00;;;;;;;;;;5017586;28;20053;-69
2021/07/30 00:59:52;;;;;;;25.92;10.98;;;;;;;;;;5017772;28;20038;-69
2021/07/30 01:02:19;;;;;;;25.83;10.82;;;;;;;;;;5019051;28;20046;-69
2021/07/30 01:04:45;;;;;;;26.58;11.32;;;;;;;;;;5020108;28;20037;-69
2021/07/30 01:07:11;;;;;;;32.15;12.52;;;;;;;;;;5019518;28;20050;-69
2021/07/30 01:09:37;;;;;;;26.13;10.95;;;;;;;;;;5017159;28;20038;-69
2021/07/30 01:12:04;;;;;;;23.00;11.60;;;;;;;;;;5021685;28;20045;-69
2021/07/30 01:14:31;;;;;;;29.00;13.52;;;;;;;;;;5020395;28;20053;-68
2021/07/30 01:16:57;;;;;;;25.55;12.00;;;;;;;;;;5019347;28;20053;-69
2021/07/30 01:19:24;;;;;;;28.67;11.98;;;;;;;;;;5016111;28;20041;-69
2021/07/30 01:21:53;;;;;;;29.65;13.85;;;;;;;;;;5020515;28;20091;-69
2021/07/30 01:24:19;;;;;;;30.02;12.70;;;;;;;;;;5021577;28;20109;-68
2021/07/30 01:26:46;;;;;;;31.50;13.85;;;;;;;;;;5017429;28;20046;-69
2021/07/30 01:29:12;;;;;;;30.80;13.68;;;;;;;;;;5018824;28;20103;-69
2021/07/30 01:31:39;;;;;;;28.23;12.90;;;;;;;;;;5015217;28;20037;-69
2021/07/30 01:34:05;;;;;;;30.48;13.40;;;;;;;;;;5018132;28;20041;-69
2021/07/30 01:36:32;;;;;;;35.47;13.73;;;;;;;;;;5020478;28;20761;-68
2021/07/30 01:38:58;;;;;;;33.50;13.57;;;;;;;;;;5020373;28;20502;-69
2021/07/30 01:41:25;;;;;;;33.97;14.07;;;;;;;;;;5025951;28;20048;-69
2021/07/30 01:43:51;;;;;;;33.53;13.63;;;;;;;;;;5019048;28;20071;-69
2021/07/30 01:46:17;;;;;;;29.20;14.48;;;;;;;;;;5024193;28;20045;-69
2021/07/30 01:48:43;;;;;;;29.45;14.43;;;;;;;;;;5023507;28;20033;-69
2021/07/30 01:51:09;;;;;;;40.47;15.95;;;;;;;;;;5014779;28;20399;-69
2021/07/30 01:53:36;;;;;;;26.45;13.27;;;;;;;;;;5018596;28;20049;-69
2021/07/30 01:56:05;;;;;;;31.38;14.10;;;;;;;;;;5018744;28;20042;-68
2021/07/30 01:58:32;;;;;;;34.88;14.65;;;;;;;;;;5017695;28;20123;-69
2021/07/30 02:00:59;;;;;;;27.60;13.40;;;;;;;;;;5014587;28;20045;-69
2021/07/30 02:03:25;;;;;;;27.38;13.88;;;;;;;;;;5016279;28;20195;-69
2021/07/30 02:05:51;;;;;;;27.23;14.13;;;;;;;;;;5016865;28;20457;-69
2021/07/30 02:08:17;;;;;;;30.48;13.60;;;;;;;;;;5016301;28;20060;-69
2021/07/30 02:10:44;;;;;;;33.50;14.50;;;;;;;;;;5018083;28;20056;-69
2021/07/30 02:15:55;;;;;;;36.65;15.23;;;;;;;;;;5018506;28;20136;-68
2021/07/30 02:18:22;;;;;;;31.88;14.05;;;;;;;;;;5018628;28;20117;-69
2021/07/30 02:20:48;;;;;;;27.80;14.18;;;;;;;;;;5020091;28;20046;-69
2021/07/30 02:23:14;;;;;;;34.78;14.68;;;;;;;;;;5022607;28;20042;-69
2021/07/30 02:25:40;;;;;;;36.30;14.50;;;;;;;;;;5024610;28;20173;-68
2021/07/30 02:28:07;;;;;;;36.58;15.20;;;;;;;;;;5026081;28;20138;-69
2021/07/30 02:30:33;;;;;;;27.10;13.88;;;;;;;;;;5023132;28;20095;-69
2021/07/30 02:32:59;;;;;;;31.77;14.40;;;;;;;;;;5024387;28;20107;-69
2021/07/30 02:35:25;;;;;;;31.55;15.90;;;;;;;;;;5029680;28;20045;-69
2021/07/30 02:37:51;;;;;;;33.20;15.18;;;;;;;;;;5021583;28;20060;-69
2021/07/30 02:40:18;;;;;;;29.42;15.57;;;;;;;;;;5021200;28;20056;-68
2021/07/30 02:42:44;;;;;;;33.92;15.48;;;;;;;;;;5027026;28;20052;-69
2021/07/30 02:45:10;;;;;;;37.55;14.93;;;;;;;;;;5022249;28;20123;-69
2021/07/30 02:47:36;;;;;;;33.28;14.27;;;;;;;;;;5022375;28;20386;-69
2021/07/30 02:50:04;;;;;;;30.63;14.32;;;;;;;;;;5018174;28;20120;-69
2021/07/30 02:52:30;;;;;;;30.58;14.50;;;;;;;;;;5020408;28;20053;-68
2021/07/30 02:54:56;;;;;;;29.90;13.63;;;;;;;;;;5022292;28;20053;-69
2021/07/30 02:57:22;;;;;;;26.17;13.95;;;;;;;;;;5018666;28;20046;-69
2021/07/30 02:59:49;;;;;;;39.28;14.85;;;;;;;;;;5017052;28;20042;-68
2021/07/30 03:02:15;;;;;;;34.38;15.18;;;;;;;;;;5022659;28;20073;-69
2021/07/30 03:04:41;;;;;;;31.15;15.00;;;;;;;;;;5024282;28;20056;-68
2021/07/30 03:07:07;;;;;;;32.67;15.60;;;;;;;;;;5022737;28;20103;-69
2021/07/30 03:09:33;;;;;;;33.38;15.13;;;;;;;;;;5021718;28;20465;-69
2021/07/30 03:12:00;;;;;;;32.17;15.23;;;;;;;;;;5020201;28;20065;-69
2021/07/30 03:14:27;;;;;;;34.33;14.07;;;;;;;;;;5025464;28;20053;-69
2021/07/30 03:16:54;;;;;;;32.10;14.18;;;;;;;;;;5019124;28;20038;-69
2021/07/30 03:19:20;;;;;;;29.02;14.98;;;;;;;;;;5020333;28;20046;-69
2021/07/30 03:21:46;;;;;;;28.30;14.93;;;;;;;;;;5023285;28;20263;-68
2021/07/30 03:24:12;;;;;;;30.92;16.15;;;;;;;;;;5023873;28;20038;-68
2021/07/30 03:26:38;;;;;;;35.83;14.98;;;;;;;;;;5029751;28;20061;-69
2021/07/30 03:29:05;;;;;;;35.72;16.25;;;;;;;;;;5016744;28;20402;-69
2021/07/30 03:31:31;;;;;;;32.63;15.43;;;;;;;;;;5017018;28;20042;-69
2021/07/30 03:33:58;;;;;;;33.25;16.90;;;;;;;;;;5021041;28;20141;-68
2021/07/30 03:36:24;;;;;;;37.25;17.85;;;;;;;;;;5017338;28;20041;-69
2021/07/30 03:38:50;;;;;;;39.70;18.10;;;;;;;;;;5016311;28;20123;-69
2021/07/30 03:41:16;;;;;;;42.85;18.20;;;;;;;;;;5021220;28;20450;-69
2021/07/30 03:43:42;;;;;;;35.08;17.02;;;;;;;;;;5015934;28;20045;-69
2021/07/30 03:46:09;;;;;;;40.28;17.50;;;;;;;;;;5022016;28;20051;-69
2021/07/30 03:48:36;;;;;;;35.78;18.90;;;;;;;;;;5018247;28;20077;-69
2021/07/30 03:51:02;;;;;;;37.20;16.88;;;;;;;;;;5021419;28;20037;-68
2021/07/30 03:53:31;;;;;;;37.95;17.70;;;;;;;;;;5025455;28;20060;-69
2021/07/30 03:55:57;;;;;;;29.30;17.70;;;;;;;;;;5025836;28;20041;-68
2021/07/30 03:58:23;;;;;;;41.30;18.35;;;;;;;;;;5016070;28;20073;-69
2021/07/30 04:00:49;;;;;;;37.80;17.70;;;;;;;;;;5016818;28;20038;-68
2021/07/30 04:03:15;;;;;;;35.58;17.05;;;;;;;;;;5023299;28;20046;-69
2021/07/30 04:05:41;;;;;;;41.72;18.30;;;;;;;;;;5015450;28;20419;-69
2021/07/30 04:08:08;;;;;;;38.28;17.42;;;;;;;;;;5019222;28;20427;-68
2021/07/30 04:10:34;;;;;;;38.95;17.85;;;;;;;;;;5018817;28;20061;-68
2021/07/30 04:13:00;;;;;;;44.80;18.42;;;;;;;;;;5020522;28;20049;-69
2021/07/30 04:15:34;;;;;;;39.38;18.30;;;;;;;;;;5022520;28;20091;-68
2021/07/30 04:18:01;;;;;;;40.95;18.27;;;;;;;;;;5021624;28;20067;-68
2021/07/30 04:20:27;;;;;;;37.20;18.35;;;;;;;;;;5023038;28;20042;-69
2021/07/30 04:22:53;;;;;;;35.92;17.75;;;;;;;;;;5023284;28;20049;-69
2021/07/30 04:25:19;;;;;;;34.63;17.35;;;;;;;;;;5024464;28;20046;-69
2021/07/30 04:27:47;;;;;;;39.25;19.60;;;;;;;;;;5023348;28;20105;-69
2021/07/30 04:30:13;;;;;;;33.70;16.77;;;;;;;;;;5029511;28;20045;-68
2021/07/30 04:32:40;;;;;;;46.42;19.52;;;;;;;;;;5022627;28;20528;-69
2021/07/30 04:35:06;;;;;;;31.45;17.40;;;;;;;;;;5032733;28;20377;-69
2021/07/30 04:37:34;;;;;;;40.00;18.33;;;;;;;;;;5018897;28;20071;-68
2021/07/30 04:40:00;;;;;;;44.53;18.63;;;;;;;;;;5018378;28;20485;-68
2021/07/30 04:42:27;;;;;;;31.33;17.08;;;;;;;;;;5022196;28;20130;-68
2021/07/30 04:44:55;;;;;;;29.42;15.70;;;;;;;;;;5017413;28;20056;-69
2021/07/30 04:47:23;;;;;;;31.63;16.30;;;;;;;;;;5019641;28;20160;-68
2021/07/30 04:49:50;;;;;;;34.58;16.60;;;;;;;;;;5016678;28;20041;-69
2021/07/30 04:52:16;;;;;;;39.55;15.77;;;;;;;;;;5022665;28;20045;-69
2021/07/30 04:54:42;;;;;;;36.10;17.33;;;;;;;;;;5022408;28;20100;-69
2021/07/30 04:57:09;;;;;;;32.72;15.38;;;;;;;;;;5020786;28;20409;-68
2021/07/30 04:59:35;;;;;;;30.88;14.85;;;;;;;;;;5026504;28;20103;-69
2021/07/30 05:02:02;;;;;;;31.42;15.48;;;;;;;;;;5017403;28;20034;-68
2021/07/30 05:04:28;;;;;;;33.13;15.02;;;;;;;;;;5025271;28;20435;-69
2021/07/30 05:06:56;;;;;;;32.78;15.90;;;;;;;;;;5022158;28;20091;-69
2021/07/30 05:09:23;;;;;;;29.58;15.43;;;;;;;;;;5018871;28;20046;-69
2021/07/30 05:11:49;;;;;;;31.55;15.52;;;;;;;;;;5017583;28;20053;-68
2021/07/30 05:14:15;;;;;;;35.20;15.82;;;;;;;;;;5019698;28;20137;-69
2021/07/30 05:16:42;;;;;;;31.00;15.40;;;;;;;;;;5017852;28;20056;-69
2021/07/30 05:19:09;;;;;;;30.02;15.05;;;;;;;;;;5020871;28;20042;-69
2021/07/30 05:21:35;;;;;;;32.65;16.17;;;;;;;;;;5018992;28;20109;-69
2021/07/30 05:24:01;;;;;;;32.10;15.98;;;;;;;;;;5021191;28;20049;-69
2021/07/30 05:26:28;;;;;;;30.60;15.32;;;;;;;;;;5023709;28;20054;-69
2021/07/30 05:28:54;;;;;;;28.63;14.20;;;;;;;;;;5017312;28;20053;-69
2021/07/30 05:31:20;;;;;;;28.88;14.40;;;;;;;;;;5013854;28;20041;-69
2021/07/30 05:33:47;;;;;;;32.80;15.20;;;;;;;;;;5022866;28;20079;-68
2021/07/30 05:36:15;;;;;;;30.50;15.05;;;;;;;;;;5017051;28;20470;-69
2021/07/30 05:38:46;;;;;;;34.40;15.73;;;;;;;;;;5020322;28;20046;-69
2021/07/30 05:41:13;;;;;;;26.08;14.55;;;;;;;;;;5018106;28;20119;-68
2021/07/30 05:43:40;;;;;;;31.85;14.70;;;;;;;;;;5014085;28;20176;-69
2021/07/30 05:46:07;;;;;;;30.92;15.25;;;;;;;;;;5019408;28;20050;-69
2021/07/30 05:48:33;;;;;;;28.42;14.50;;;;;;;;;;5017957;28;20045;-69
2021/07/30 05:50:59;;;;;;;28.35;14.25;;;;;;;;;;5016765;28;21771;-68
2021/07/30 05:53:26;;;;;;;26.92;15.07;;;;;;;;;;5018407;28;20343;-69
2021/07/30 05:55:52;;;;;;;27.85;14.05;;;;;;;;;;5028935;28;20048;-68
2021/07/30 05:58:18;;;;;;;32.20;14.48;;;;;;;;;;5021921;28;20046;-69
2021/07/30 06:00:44;;;;;;;28.85;14.23;;;;;;;;;;5028196;28;20463;-69
2021/07/30 06:03:11;;;;;;;30.02;14.18;;;;;;;;;;5027475;28;20125;-69
2021/07/30 06:05:37;;;;;;;30.80;13.35;;;;;;;;;;5025576;28;20041;-69
2021/07/30 06:08:05;;;;;;;30.00;13.13;;;;;;;;;;5028634;28;20037;-69
2021/07/30 06:10:32;;;;;;;29.00;13.27;;;;;;;;;;5026414;28;20452;-70
2021/07/30 06:12:58;;;;;;;27.58;13.02;;;;;;;;;;5020145;28;20049;-70
2021/07/30 06:15:25;;;;;;;24.10;12.23;;;;;;;;;;5024397;28;20038;-70
2021/07/30 06:17:52;;;;;;;26.30;12.30;;;;;;;;;;5026308;28;20050;-70
2021/07/30 06:20:19;;;;;;;26.88;14.32;;;;;;;;;;5027748;28;20490;-70
2021/07/30 06:22:46;;;;;;;21.30;11.95;;;;;;;;;;5026829;28;20052;-70
2021/07/30 06:25:13;;;;;;;28.83;13.00;;;;;;;;;;5025809;28;20061;-70
2021/07/30 06:27:39;;;;;;;23.52;12.93;;;;;;;;;;5027173;28;20064;-69
2021/07/30 06:30:07;;;;;;;25.27;11.50;;;;;;;;;;5026278;28;20085;-70
2021/07/30 06:32:34;;;;;;;29.88;12.25;;;;;;;;;;5024543;28;20037;-70
2021/07/30 06:35:00;;;;;;;30.38;13.27;;;;;;;;;;5023139;28;20414;-70
2021/07/30 06:37:31;;;;;;;28.10;10.27;;;;;;;;;;5024333;28;20060;-69
2021/07/30 06:39:57;;;;;;;24.30;10.60;;;;;;;;;;5025937;28;20030;-68
2021/07/30 06:42:23;;;;;;;27.55;11.40;;;;;;;;;;5029417;28;20053;-68
2021/07/30 06:44:50;;;;;;;24.80;10.57;;;;;;;;;;5029218;28;20041;-68
2021/07/30 06:47:18;;;;;;;24.90;11.07;;;;;;;;;;5023895;28;20541;-68
2021/07/30 06:49:45;;;;;;;26.98;11.52;;;;;;;;;;5019831;28;20050;-68
2021/07/30 06:52:11;;;;;;;28.73;10.80;;;;;;;;;;5022637;28;20061;-68
2021/07/30 06:54:37;;;;;;;28.20;11.73;;;;;;;;;;5026275;28;20045;-69
2021/07/30 06:57:04;;;;;;;21.02;11.27;;;;;;;;;;5037130;28;20047;-68
2021/07/30 06:59:30;;;;;;;21.00;11.07;;;;;;;;;;5027803;28;20454;-69
2021/07/30 07:01:56;;;;;;;20.90;10.25;;;;;;;;;;5024899;28;20045;-69
2021/07/30 07:04:23;;;;;;;23.60;9.15;;;;;;;;;;5029262;28;20129;-69
2021/07/30 07:06:49;;;;;;;26.40;11.75;;;;;;;;;;5024066;28;20060;-69
2021/07/30 07:09:16;;;;;;;22.08;10.25;;;;;;;;;;5021696;28;20502;-69
2021/07/30 07:11:42;;;;;;;23.92;10.15;;;;;;;;;;5021742;28;20045;-69
2021/07/30 07:14:08;;;;;;;21.70;9.52;;;;;;;;;;5027485;28;20485;-69
2021/07/30 07:16:34;;;;;;;23.67;8.57;;;;;;;;;;5018726;28;20053;-69
2021/07/30 07:19:01;;;;;;;23.25;8.75;;;;;;;;;;5027229;28;20045;-69
2021/07/30 07:21:27;;;;;;;31.42;9.50;;;;;;;;;;5026934;28;20081;-70
2021/07/30 07:23:53;;;;;;;21.95;8.35;;;;;;;;;;5023964;28;20072;-69
2021/07/30 07:26:20;;;;;;;22.67;7.82;;;;;;;;;;5020736;28;20050;-70
2021/07/30 07:28:46;;;;;;;23.15;7.82;;;;;;;;;;5025021;28;20093;-70
2021/07/30 07:31:12;;;;;;;22.20;8.32;;;;;;;;;;5022970;28;20056;-70
2021/07/30 07:33:39;;;;;;;20.73;8.13;;;;;;;;;;5028040;28;20454;-70
2021/07/30 07:36:05;;;;;;;24.20;8.52;;;;;;;;;;5043218;28;20119;-70
2021/07/30 07:38:32;;;;;;;17.90;7.75;;;;;;;;;;5029099;28;20054;-71
2021/07/30 07:41:01;;;;;;;20.67;8.57;;;;;;;;;;5027925;28;20117;-71
2021/07/30 07:43:27;;;;;;;21.88;8.65;;;;;;;;;;5030475;28;20045;-70
2021/07/30 07:45:53;;;;;;;23.48;8.32;;;;;;;;;;5031732;28;20053;-70
2021/07/30 07:48:19;;;;;;;19.75;8.43;;;;;;;;;;5031189;28;20401;-70
2021/07/30 07:50:46;;;;;;;23.38;8.23;;;;;;;;;;5030603;28;20049;-70
2021/07/30 07:53:13;;;;;;;18.20;8.27;;;;;;;;;;5031422;28;20128;-70
2021/07/30 07:55:39;;;;;;;25.10;8.30;;;;;;;;;;5031346;28;20149;-70
2021/07/30 07:58:06;;;;;;;20.92;7.28;;;;;;;;;;5029172;28;20128;-70
2021/07/30 08:00:32;;;;;;;22.02;8.05;;;;;;;;;;5031126;28;20127;-70
2021/07/30 08:02:58;;;;;;;20.98;8.02;;;;;;;;;;5031425;28;20137;-70
2021/07/30 08:05:24;;;;;;;26.83;7.40;;;;;;;;;;5030332;28;20073;-70
2021/07/30 08:07:50;;;;;;;19.33;8.13;;;;;;;;;;5031271;28;20100;-70
2021/07/30 08:10:17;;;;;;;18.75;7.60;;;;;;;;;;5031269;28;20082;-70
2021/07/30 08:12:43;;;;;;;22.48;8.75;;;;;;;;;;5031948;28;20049;-70
2021/07/30 08:15:09;;;;;;;20.77;8.30;;;;;;;;;;5031866;28;20120;-70
2021/07/30 08:17:36;;;;;;;22.00;7.88;;;;;;;;;;5030512;28;20068;-70
2021/07/30 08:20:04;;;;;;;24.58;8.15;;;;;;;;;;5031983;28;20045;-70
2021/07/30 08:22:30;;;;;;;23.95;8.73;;;;;;;;;;5031665;28;20060;-70
2021/07/30 08:24:56;;;;;;;19.63;8.13;;;;;;;;;;5030699;28;20436;-70
2021/07/30 08:27:22;;;;;;;19.95;9.32;;;;;;;;;;5031384;28;20054;-70
2021/07/30 08:29:49;;;;;;;20.60;7.88;;;;;;;;;;5031553;28;20053;-70
2021/07/30 08:32:17;;;;;;;21.00;7.53;;;;;;;;;;5031118;28;20396;-70
2021/07/30 08:34:43;;;;;;;20.80;8.43;;;;;;;;;;5030419;28;20056;-70
2021/07/30 08:37:09;;;;;;;19.30;8.23;;;;;;;;;;5015831;28;20056;-70
2021/07/30 08:39:36;;;;;;;17.80;7.88;;;;;;;;;;5013846;28;20097;-71
2021/07/30 08:42:03;;;;;;;17.80;8.38;;;;;;;;;;5014260;28;20050;-70
2021/07/30 08:44:29;;;;;;;18.38;7.43;;;;;;;;;;5013726;28;20049;-70
2021/07/30 08:46:56;;;;;;;20.17;7.70;;;;;;;;;;5016002;28;20115;-70
2021/07/30 08:49:22;;;;;;;17.48;7.63;;;;;;;;;;5013083;28;20038;-70
2021/07/30 08:51:51;;;;;;;21.88;8.38;;;;;;;;;;5017270;28;20071;-70
2021/07/30 08:54:17;;;;;;;20.02;8.10;;;;;;;;;;5015707;28;20053;-70
2021/07/30 08:56:43;;;;;;;19.42;7.97;;;;;;;;;;5015582;28;20046;-70
2021/07/30 08:59:10;;;;;;;19.67;7.53;;;;;;;;;;5026112;28;20033;-70
2021/07/30 09:01:36;;;;;;;19.80;7.45;;;;;;;;;;5012480;28;20072;-69
2021/07/30 09:04:03;;;;;;;17.38;7.45;;;;;;;;;;5011794;28;20482;-70
2021/07/30 09:06:29;;;;;;;15.05;7.32;;;;;;;;;;5013884;28;20054;-70
2021/07/30 09:09:02;;;;;;;20.38;6.63;;;;;;;;;;5020899;28;20046;-68
2021/07/30 09:11:29;;;;;;;15.73;7.50;;;;;;;;;;5014425;28;20439;-68
2021/07/30 09:13:57;;;;;;;21.52;8.10;;;;;;;;;;5027609;28;20038;-69
2021/07/30 09:16:23;;;;;;;14.85;7.50;;;;;;;;;;5028786;28;20159;-69
2021/07/30 09:18:51;;;;;;;23.00;7.78;;;;;;;;;;5029958;28;20156;-69
2021/07/30 09:21:26;;;;;;;22.17;7.85;;;;;;;;;;5021950;28;20037;-69
2021/07/30 09:23:54;;;;;;;16.48;7.32;;;;;;;;;;5030380;28;20133;-69
2021/07/30 09:26:27;;;;;;;17.83;7.15;;;;;;;;;;5029559;28;20124;-69
2021/07/30 09:28:54;;;;;;;17.55;6.95;;;;;;;;;;5029257;28;20127;-69
2021/07/30 09:31:20;;;;;;;15.05;7.05;;;;;;;;;;5028471;28;20052;-69
2021/07/30 09:33:46;;;;;;;16.10;6.43;;;;;;;;;;5027707;28;20132;-69
2021/07/30 09:36:13;;;;;;;12.70;5.82;;;;;;;;;;5028296;28;20160;-69
2021/07/30 09:38:39;;;;;;;15.45;5.72;;;;;;;;;;5025397;28;20443;-69
2021/07/30 09:41:10;;;;;;;16.13;6.18;;;;;;;;;;5023131;28;20056;-70
2021/07/30 09:43:38;;;;;;;11.25;5.40;;;;;;;;;;5019449;28;20053;-70
2021/07/30 09:46:12;;;;;;;13.98;5.03;;;;;;;;;;5030412;28;20041;-69
2021/07/30 09:48:48;;;;;;;11.75;4.82;;;;;;;;;;5028514;28;20049;-70
2021/07/30 09:51:15;;;;;;;14.00;5.50;;;;;;;;;;5030207;28;20072;-70
2021/07/30 09:53:43;;;;;;;11.48;5.55;;;;;;;;;;5043754;28;20065;-70
2021/07/30 09:56:11;;;;;;;18.17;5.70;;;;;;;;;;5028793;28;20049;-70
2021/07/30 09:58:37;;;;;;;12.18;5.88;;;;;;;;;;5030131;28;20047;-70
2021/07/30 10:01:04;;;;;;;14.32;4.85;;;;;;;;;;5029498;28;20041;-70
2021/07/30 10:03:31;;;;;;;16.48;5.50;;;;;;;;;;5024668;28;20557;-70
2021/07/30 10:05:57;;;;;;;14.43;5.93;;;;;;;;;;5029693;28;20136;-70
2021/07/30 10:08:24;;;;;;;16.85;5.93;;;;;;;;;;5029451;28;20151;-69
2021/07/30 10:10:50;;;;;;;11.65;5.40;;;;;;;;;;5029306;28;20053;-70
2021/07/30 10:13:19;;;;;;;13.43;5.15;;;;;;;;;;5030136;28;20087;-69
2021/07/30 10:15:46;;;;;;;11.27;4.95;;;;;;;;;;5029882;28;20038;-69
2021/07/30 10:18:12;;;;;;;12.23;5.25;;;;;;;;;;5029269;28;20065;-69
2021/07/30 10:20:39;;;;;;;15.63;5.43;;;;;;;;;;5029853;28;20056;-70
2021/07/30 10:23:08;;;;;;;15.60;5.80;;;;;;;;;;5028492;28;20115;-69
2021/07/30 10:25:35;;;;;;;12.40;4.75;;;;;;;;;;5026608;28;20050;-69
2021/07/30 10:28:05;;;;;;;12.93;5.53;;;;;;;;;;5018131;28;20064;-69
2021/07/30 10:30:51;;;;;;;11.25;5.53;;;;;;;;;;5024169;28;20067;-69
2021/07/30 10:33:37;;;;;;;12.57;5.97;;;;;;;;;;5022356;28;20056;-70
2021/07/30 10:36:06;;;;;;;11.60;4.90;;;;;;;;;;5016312;28;20046;-69
2021/07/30 10:38:32;;;;;;;13.15;5.15;;;;;;;;;;5023744;28;20115;-69
2021/07/30 10:40:58;;;;;;;12.00;5.65;;;;;;;;;;5020068;28;20366;-69
2021/07/30 10:43:33;;;;;;;10.52;4.95;;;;;;;;;;5029983;28;20144;-69
2021/07/30 10:46:08;;;;;;;10.20;4.47;;;;;;;;;;5018913;28;20041;-70
2021/07/30 10:48:36;;;;;;;12.15;4.22;;;;;;;;;;5025874;28;20045;-68
2021/07/30 10:51:04;;;;;;;11.88;3.83;;;;;;;;;;5026430;28;20038;-68
2021/07/30 10:53:33;;;;;;;12.30;4.35;;;;;;;;;;5041447;28;20444;-68
2021/07/30 10:55:59;;;;;;;11.13;4.18;;;;;;;;;;5016952;28;20062;-68
2021/07/30 10:58:40;;;;;;;8.38;3.45;;;;;;;;;;5023678;28;20216;-68
2021/07/30 11:01:08;;;;;;;13.23;4.20;;;;;;;;;;5023572;28;20037;-69
2021/07/30 11:03:50;;;;;;;13.38;4.30;;;;;;;;;;5017899;28;20520;-68
2021/07/30 11:06:16;;;;;;;7.45;3.15;;;;;;;;;;5020257;28;20167;-69
2021/07/30 11:08:59;;;;;;;14.48;3.92;;;;;;;;;;5026002;28;20160;-70
2021/07/30 11:11:41;;;;;;;10.43;3.85;;;;;;;;;;5020087;28;20085;-69
2021/07/30 11:14:11;;;;;;;11.25;4.57;;;;;;;;;;5022725;28;20050;-69
2021/07/30 11:16:38;;;;;;;9.52;3.65;;;;;;;;;;5019192;28;20425;-69
2021/07/30 11:19:04;;;;;;;10.52;4.70;;;;;;;;;;5023809;28;20049;-69
2021/07/30 11:21:31;;;;;;;11.63;3.83;;;;;;;;;;5019094;28;20038;-69
2021/07/30 11:23:58;;;;;;;10.50;4.25;;;;;;;;;;5023372;28;20088;-69
2021/07/30 11:26:24;;;;;;;13.15;4.13;;;;;;;;;;5018432;28;20432;-69
2021/07/30 11:28:51;;;;;;;14.75;4.05;;;;;;;;;;5028245;28;20447;-69
2021/07/30 11:31:18;;;;;;;12.85;4.18;;;;;;;;;;5014290;28;20122;-69
2021/07/30 11:33:45;;;;;;;8.57;3.30;;;;;;;;;;5016185;28;20046;-69
2021/07/30 11:36:12;;;;;;;9.38;3.90;;;;;;;;;;5017219;28;20045;-69
2021/07/30 11:38:53;;;;;;;12.48;3.55;;;;;;;;;;5016707;28;20069;-69
2021/07/30 11:41:20;;;;;;;12.38;4.03;;;;;;;;;;5017871;28;20045;-69
2021/07/30 11:44:04;;;;;;;11.10;4.10;;;;;;;;;;5021435;28;20056;-83
2021/07/30 11:46:31;;;;;;;8.13;3.10;;;;;;;;;;5023242;28;20053;-83
2021/07/30 11:48:58;;;;;;;9.30;3.40;;;;;;;;;;5023453;28;20042;-88
2021/07/30 11:51:24;;;;;;;11.13;3.83;;;;;;;;;;5025475;28;20045;-73
2021/07/30 11:53:51;;;;;;;7.85;3.35;;;;;;;;;;5023756;28;20049;-73
2021/07/30 11:56:18;;;;;;;9.55;3.20;;;;;;;;;;5024246;28;20064;-72
2021/07/30 11:58:56;;;;;;;8.90;3.30;;;;;;;;;;5022891;28;20102;-72
2021/07/30 12:01:22;;;;;;;8.73;3.15;;;;;;;;;;5023364;28;20421;-72
2021/07/30 12:04:06;;;;;;;10.15;3.28;;;;;;;;;;5021528;28;20488;-73
2021/07/30 12:06:41;;;;;;;8.18;3.50;;;;;;;;;;5022134;28;20045;-72
2021/07/30 12:09:08;;;;;;;7.40;3.63;;;;;;;;;;5025428;28;20516;-72
2021/07/30 12:11:35;;;;;;;10.93;4.20;;;;;;;;;;5023689;28;20049;-73
2021/07/30 12:14:02;;;;;;;10.23;3.33;;;;;;;;;;5018537;28;20444;-73
2021/07/30 12:16:28;;;;;;;11.65;3.83;;;;;;;;;;5021512;28;20069;-72
2021/07/30 12:18:54;;;;;;;8.02;3.53;;;;;;;;;;5021517;28;20045;-69
2021/07/30 12:21:21;;;;;;;9.60;4.30;;;;;;;;;;5024182;28;20513;-69
2021/07/30 12:23:47;;;;;;;13.05;4.72;;;;;;;;;;5023840;28;20053;-88
2021/07/30 12:26:29;;;;;;;8.20;4.40;;;;;;;;;;5020669;28;20053;-88
2021/07/30 12:28:56;;;;;;;8.07;4.10;;;;;;;;;;5016286;28;20042;-69
2021/07/30 12:31:22;;;;;;;11.90;4.30;;;;;;;;;;5024692;28;20053;-69
2021/07/30 12:33:49;;;;;;;9.63;3.75;;;;;;;;;;5029110;28;20049;-69
2021/07/30 12:36:15;;;;;;;7.65;3.70;;;;;;;;;;5023687;28;20049;-69
2021/07/30 12:38:59;;;;;;;8.77;4.05;;;;;;;;;;5020724;28;20057;-69
2021/07/30 12:41:26;;;;;;;7.38;3.28;;;;;;;;;;5025517;28;20073;-69
2021/07/30 12:43:53;;;;;;;16.13;4.28;;;;;;;;;;5021000;28;20048;-69
2021/07/30 12:46:36;;;;;;;10.02;3.80;;;;;;;;;;5018223;28;20104;-69
2021/07/30 12:49:04;;;;;;;8.40;3.20;;;;;;;;;;5022684;28;20065;-69
2021/07/30 12:51:31;;;;;;;11.60;3.70;;;;;;;;;;5016320;28;20064;-69
2021/07/30 12:54:03;;;;;;;9.65;3.97;;;;;;;;;;5017142;28;20049;-70
2021/07/30 12:56:49;;;;;;;12.20;4.15;;;;;;;;;;5018358;28;20038;-69
2021/07/30 12:59:15;;;;;;;11.65;4.60;;;;;;;;;;5017662;28;20038;-70
2021/07/30 13:01:41;;;;;;;11.70;4.53;;;;;;;;;;5021656;28;20049;-70
2021/07/30 13:04:09;;;;;;;9.02;4.22;;;;;;;;;;5017434;28;20138;-70
2021/07/30 13:06:35;;;;;;;13.13;4.88;;;;;;;;;;5018089;28;20041;-71
2021/07/30 13:09:01;;;;;;;8.95;4.97;;;;;;;;;;5025499;28;20468;-70
2021/07/30 13:11:27;;;;;;;12.35;5.35;;;;;;;;;;5025098;28;20096;-70
2021/07/30 13:13:54;;;;;;;13.07;5.30;;;;;;;;;;5021639;28;20060;-70
2021/07/30 13:16:20;;;;;;;15.30;5.35;;;;;;;;;;5018775;28;20488;-70
2021/07/30 13:18:46;;;;;;;13.15;5.07;;;;;;;;;;5023220;28;20052;-69
2021/07/30 13:21:12;;;;;;;11.02;4.05;;;;;;;;;;5026528;28;20041;-69
2021/07/30 13:23:39;;;;;;;13.15;4.82;;;;;;;;;;5018921;28;20396;-70
2021/07/30 13:26:05;;;;;;;11.68;4.03;;;;;;;;;;5018455;28;20590;-69
2021/07/30 13:28:32;;;;;;;8.32;3.45;;;;;;;;;;5017791;28;20045;-69
2021/07/30 13:30:58;;;;;;;11.27;3.10;;;;;;;;;;5021287;28;20045;-69
2021/07/30 13:33:24;;;;;;;8.48;3.20;;;;;;;;;;5020746;28;20064;-68
2021/07/30 13:35:51;;;;;;;6.32;3.03;;;;;;;;;;5021386;28;20061;-68
2021/07/30 13:38:17;;;;;;;9.07;3.58;;;;;;;;;;5026643;28;20116;-69
2021/07/30 13:40:44;;;;;;;8.23;2.88;;;;;;;;;;5016961;28;20134;-69
2021/07/30 13:43:11;;;;;;;9.30;3.10;;;;;;;;;;5022820;28;20132;-69
2021/07/30 13:45:40;;;;;;;10.10;3.22;;;;;;;;;;5018522;28;20049;-68
2021/07/30 13:48:06;;;;;;;8.35;2.97;;;;;;;;;;5017505;28;20148;-69
2021/07/30 13:50:33;;;;;;;8.15;3.10;;;;;;;;;;5021469;28;21643;-68
2021/07/30 13:52:59;;;;;;;8.23;2.90;;;;;;;;;;5016621;28;20141;-69
2021/07/30 13:55:25;;;;;;;8.38;3.50;;;;;;;;;;5014766;28;20041;-69
2021/07/30 13:57:52;;;;;;;8.85;3.45;;;;;;;;;;5019292;28;20065;-68
2021/07/30 14:00:18;;;;;;;8.98;3.08;;;;;;;;;;5016750;28;20072;-69
2021/07/30 14:02:45;;;;;;;8.32;3.55;;;;;;;;;;5021280;28;20090;-68
2021/07/30 14:05:11;;;;;;;8.20;3.65;;;;;;;;;;5020327;28;20132;-69
2021/07/30 14:07:39;;;;;;;7.53;3.42;;;;;;;;;;5013426;28;20046;-68
2021/07/30 14:10:08;;;;;;;7.80;3.30;;;;;;;;;;5018689;28;20037;-69
2021/07/30 14:12:34;;;;;;;7.20;3.25;;;;;;;;;;5018591;28;20050;-69
2021/07/30 14:15:00;;;;;;;10.07;3.50;;;;;;;;;;5014522;28;20068;-69
2021/07/30 14:17:27;;;;;;;8.32;3.67;;;;;;;;;;5019094;28;20068;-69
2021/07/30 14:19:53;;;;;;;7.85;3.67;;;;;;;;;;5018999;28;20037;-68
2021/07/30 14:22:19;;;;;;;8.27;3.78;;;;;;;;;;5029050;28;20103;-70
2021/07/30 14:24:45;;;;;;;7.65;3.88;;;;;;;;;;5022157;28;20067;-69
2021/07/30 14:27:11;;;;;;;7.88;4.55;;;;;;;;;;5021130;28;20045;-70
2021/07/30 14:29:38;;;;;;;12.27;4.03;;;;;;;;;;5027571;28;20091;-70